sensor_id;sensor_type;location;lat;lon;timestamp;P1;durP1;ratioP1;P2;durP2;ratioP2
57055;SDS011;42945;51.718;5.324;2023-03-23T00:01:19;6.07;;;2.78;;
57055;SDS011;42945;51.718;5.324;2023-03-23T00:03:47;7.90;;;2.45;;
57055;SDS011;42945;51.718;5.324;2023-03-23T00:06:15;10.95;;;2.80;;
57055;SDS011;42945;51.718;5.324;2023-03-23T00:08:42;6.68;;;2.40;;
57055;SDS011;42945;51.718;5.324;2023-03-23T00:11:15;8.52;;;3.03;;
57055;SDS011;42945;51.718;5.324;2023-03-23T00:13:46;6.43;;;2.90;;
57055;SDS011;42945;51.718;5.324;2023-03-23T00:16:16;5.38;;;2.78;;
57055;SDS011;42945;51.718;5.324;2023-03-23T00:18:47;6.93;;;2.42;;
57055;SDS011;42945;51.718;5.324;2023-03-23T00:21:21;4.43;;;2.30;;
57055;SDS011;42945;51.718;5.324;2023-03-23T00:23:50;4.15;;;2.40;;
57055;SDS011;42945;51.718;5.324;2023-03-23T00:26:16;7.55;;;2.85;;
57055;SDS011;42945;51.718;5.324;2023-03-23T00:28:42;10.52;;;2.47;;
57055;SDS011;42945;51.718;5.324;2023-03-23T00:31:08;3.95;;;2.40;;
57055;SDS011;42945;51.718;5.324;2023-03-23T00:33:35;11.63;;;3.03;;
57055;SDS011;42945;51.718;5.324;2023-03-23T00:36:05;7.47;;;2.85;;
57055;SDS011;42945;51.718;5.324;2023-03-23T00:38:34;6.00;;;2.72;;
57055;SDS011;42945;51.718;5.324;2023-03-23T00:41:00;7.28;;;2.85;;
57055;SDS011;42945;51.718;5.324;2023-03-23T00:43:29;7.35;;;2.75;;
57055;SDS011;42945;51.718;5.324;2023-03-23T00:45:56;6.63;;;2.80;;
57055;SDS011;42945;51.718;5.324;2023-03-23T00:48:26;8.00;;;2.75;;
57055;SDS011;42945;51.718;5.324;2023-03-23T00:50:52;6.03;;;2.53;;
57055;SDS011;42945;51.718;5.324;2023-03-23T00:53:18;5.57;;;2.80;;
57055;SDS011;42945;51.718;5.324;2023-03-23T00:55:44;6.45;;;2.85;;
57055;SDS011;42945;51.718;5.324;2023-03-23T00:58:11;5.30;;;3.08;;
57055;SDS011;42945;51.718;5.324;2023-03-23T01:00:37;7.32;;;3.13;;
57055;SDS011;42945;51.718;5.324;2023-03-23T01:03:03;5.07;;;2.85;;
57055;SDS011;42945;51.718;5.324;2023-03-23T01:05:33;5.93;;;3.20;;
57055;SDS011;42945;51.718;5.324;2023-03-23T01:08:02;6.50;;;2.83;;
57055;SDS011;42945;51.718;5.324;2023-03-23T01:10:28;6.10;;;2.78;;
57055;SDS011;42945;51.718;5.324;2023-03-23T01:12:57;6.00;;;3.08;;
57055;SDS011;42945;51.718;5.324;2023-03-23T01:15:26;6.28;;;3.25;;
57055;SDS011;42945;51.718;5.324;2023-03-23T01:17:52;6.35;;;2.95;;
57055;SDS011;42945;51.718;5.324;2023-03-23T01:20:17;7.43;;;3.10;;
57055;SDS011;42945;51.718;5.324;2023-03-23T01:22:42;5.43;;;2.85;;
57055;SDS011;42945;51.718;5.324;2023-03-23T01:25:08;7.03;;;3.15;;
57055;SDS011;42945;51.718;5.324;2023-03-23T01:27:35;8.13;;;3.53;;
57055;SDS011;42945;51.718;5.324;2023-03-23T01:30:00;5.13;;;2.85;;
57055;SDS011;42945;51.718;5.324;2023-03-23T01:32:26;7.97;;;3.38;;
57055;SDS011;42945;51.718;5.324;2023-03-23T01:34:52;4.47;;;3.03;;
57055;SDS011;42945;51.718;5.324;2023-03-23T01:37:17;9.23;;;3.33;;
57055;SDS011;42945;51.718;5.324;2023-03-23T01:39:43;5.93;;;3.00;;
57055;SDS011;42945;51.718;5.324;2023-03-23T01:42:09;5.03;;;3.25;;
57055;SDS011;42945;51.718;5.324;2023-03-23T01:47:04;5.32;;;3.22;;
57055;SDS011;42945;51.718;5.324;2023-03-23T01:49:31;5.28;;;3.30;;
57055;SDS011;42945;51.718;5.324;2023-03-23T01:52:01;5.28;;;2.97;;
57055;SDS011;42945;51.718;5.324;2023-03-23T01:54:31;7.75;;;3.10;;
57055;SDS011;42945;51.718;5.324;2023-03-23T01:57:01;6.03;;;3.03;;
57055;SDS011;42945;51.718;5.324;2023-03-23T01:59:28;5.40;;;2.85;;
57055;SDS011;42945;51.718;5.324;2023-03-23T02:01:56;7.28;;;2.90;;
57055;SDS011;42945;51.718;5.324;2023-03-23T02:04:22;9.40;;;3.75;;
57055;SDS011;42945;51.718;5.324;2023-03-23T02:06:50;8.48;;;3.20;;
57055;SDS011;42945;51.718;5.324;2023-03-23T02:09:18;8.25;;;3.10;;
57055;SDS011;42945;51.718;5.324;2023-03-23T02:11:45;5.22;;;3.35;;
57055;SDS011;42945;51.718;5.324;2023-03-23T02:14:13;7.00;;;3.35;;
57055;SDS011;42945;51.718;5.324;2023-03-23T02:16:40;4.72;;;3.00;;
57055;SDS011;42945;51.718;5.324;2023-03-23T02:19:22;4.43;;;2.83;;
57055;SDS011;42945;51.718;5.324;2023-03-23T02:27:41;5.15;;;2.95;;
57055;SDS011;42945;51.718;5.324;2023-03-23T02:30:33;5.68;;;3.13;;
57055;SDS011;42945;51.718;5.324;2023-03-23T02:33:28;5.15;;;2.50;;
57055;SDS011;42945;51.718;5.324;2023-03-23T02:39:03;4.88;;;2.72;;
57055;SDS011;42945;51.718;5.324;2023-03-23T02:41:36;5.72;;;2.90;;
57055;SDS011;42945;51.718;5.324;2023-03-23T02:44:05;8.98;;;3.10;;
57055;SDS011;42945;51.718;5.324;2023-03-23T02:46:33;8.23;;;3.20;;
57055;SDS011;42945;51.718;5.324;2023-03-23T02:49:00;6.57;;;3.00;;
57055;SDS011;42945;51.718;5.324;2023-03-23T02:51:28;6.28;;;2.80;;
57055;SDS011;42945;51.718;5.324;2023-03-23T02:53:55;7.70;;;3.05;;
57055;SDS011;42945;51.718;5.324;2023-03-23T02:56:23;5.20;;;3.25;;
57055;SDS011;42945;51.718;5.324;2023-03-23T02:58:52;7.10;;;3.20;;
57055;SDS011;42945;51.718;5.324;2023-03-23T03:03:49;5.50;;;2.33;;
57055;SDS011;42945;51.718;5.324;2023-03-23T03:06:27;7.72;;;3.20;;
57055;SDS011;42945;51.718;5.324;2023-03-23T03:09:02;6.70;;;2.58;;
57055;SDS011;42945;51.718;5.324;2023-03-23T03:11:39;4.30;;;2.90;;
57055;SDS011;42945;51.718;5.324;2023-03-23T03:14:13;6.97;;;2.70;;
57055;SDS011;42945;51.718;5.324;2023-03-23T03:17:01;5.80;;;2.67;;
57055;SDS011;42945;51.718;5.324;2023-03-23T03:19:37;5.22;;;2.55;;
57055;SDS011;42945;51.718;5.324;2023-03-23T03:22:05;4.95;;;2.45;;
57055;SDS011;42945;51.718;5.324;2023-03-23T03:24:32;4.32;;;2.65;;
57055;SDS011;42945;51.718;5.324;2023-03-23T03:27:02;4.38;;;2.83;;
57055;SDS011;42945;51.718;5.324;2023-03-23T03:29:33;6.32;;;2.90;;
57055;SDS011;42945;51.718;5.324;2023-03-23T03:32:00;4.68;;;2.53;;
57055;SDS011;42945;51.718;5.324;2023-03-23T03:34:30;4.18;;;2.30;;
57055;SDS011;42945;51.718;5.324;2023-03-23T03:36:57;3.75;;;2.08;;
57055;SDS011;42945;51.718;5.324;2023-03-23T03:39:25;6.45;;;2.42;;
57055;SDS011;42945;51.718;5.324;2023-03-23T03:41:52;4.75;;;2.10;;
57055;SDS011;42945;51.718;5.324;2023-03-23T03:44:17;4.60;;;2.47;;
57055;SDS011;42945;51.718;5.324;2023-03-23T03:46:43;5.18;;;2.38;;
57055;SDS011;42945;51.718;5.324;2023-03-23T03:49:09;4.80;;;2.45;;
57055;SDS011;42945;51.718;5.324;2023-03-23T03:51:37;5.30;;;2.40;;
57055;SDS011;42945;51.718;5.324;2023-03-23T03:54:03;6.35;;;2.28;;
57055;SDS011;42945;51.718;5.324;2023-03-23T03:56:28;6.40;;;2.88;;
57055;SDS011;42945;51.718;5.324;2023-03-23T03:58:53;7.78;;;2.42;;
57055;SDS011;42945;51.718;5.324;2023-03-23T04:01:20;7.03;;;2.63;;
57055;SDS011;42945;51.718;5.324;2023-03-23T04:03:47;5.68;;;2.50;;
57055;SDS011;42945;51.718;5.324;2023-03-23T04:06:14;8.02;;;1.98;;
57055;SDS011;42945;51.718;5.324;2023-03-23T04:08:39;11.13;;;2.20;;
57055;SDS011;42945;51.718;5.324;2023-03-23T04:11:06;6.85;;;2.20;;
57055;SDS011;42945;51.718;5.324;2023-03-23T04:13:33;5.30;;;2.20;;
57055;SDS011;42945;51.718;5.324;2023-03-23T04:15:58;5.38;;;2.00;;
57055;SDS011;42945;51.718;5.324;2023-03-23T04:18:23;7.95;;;2.28;;
57055;SDS011;42945;51.718;5.324;2023-03-23T04:20:50;6.90;;;1.80;;
57055;SDS011;42945;51.718;5.324;2023-03-23T04:23:16;11.10;;;2.08;;
57055;SDS011;42945;51.718;5.324;2023-03-23T04:25:46;7.32;;;2.03;;
57055;SDS011;42945;51.718;5.324;2023-03-23T04:28:13;6.78;;;2.42;;
57055;SDS011;42945;51.718;5.324;2023-03-23T04:30:41;6.80;;;1.98;;
57055;SDS011;42945;51.718;5.324;2023-03-23T04:33:08;4.78;;;1.60;;
57055;SDS011;42945;51.718;5.324;2023-03-23T04:35:34;9.68;;;2.03;;
57055;SDS011;42945;51.718;5.324;2023-03-23T04:37:59;6.85;;;2.00;;
57055;SDS011;42945;51.718;5.324;2023-03-23T04:40:24;7.68;;;1.70;;
57055;SDS011;42945;51.718;5.324;2023-03-23T04:42:50;9.48;;;2.03;;
57055;SDS011;42945;51.718;5.324;2023-03-23T04:45:19;5.55;;;1.60;;
57055;SDS011;42945;51.718;5.324;2023-03-23T04:47:50;5.85;;;1.40;;
57055;SDS011;42945;51.718;5.324;2023-03-23T04:50:22;7.65;;;2.25;;
57055;SDS011;42945;51.718;5.324;2023-03-23T04:52:49;8.48;;;1.92;;
57055;SDS011;42945;51.718;5.324;2023-03-23T04:55:16;9.63;;;1.95;;
57055;SDS011;42945;51.718;5.324;2023-03-23T04:57:42;8.27;;;1.42;;
57055;SDS011;42945;51.718;5.324;2023-03-23T05:00:09;13.48;;;1.88;;
57055;SDS011;42945;51.718;5.324;2023-03-23T05:02:39;6.72;;;1.90;;
57055;SDS011;42945;51.718;5.324;2023-03-23T05:05:08;7.00;;;1.60;;
57055;SDS011;42945;51.718;5.324;2023-03-23T05:07:36;15.95;;;1.88;;
57055;SDS011;42945;51.718;5.324;2023-03-23T05:10:02;8.48;;;1.60;;
57055;SDS011;42945;51.718;5.324;2023-03-23T05:12:28;3.03;;;1.17;;
57055;SDS011;42945;51.718;5.324;2023-03-23T05:14:54;7.93;;;1.48;;
57055;SDS011;42945;51.718;5.324;2023-03-23T05:17:19;7.93;;;1.40;;
57055;SDS011;42945;51.718;5.324;2023-03-23T05:19:45;5.53;;;1.52;;
57055;SDS011;42945;51.718;5.324;2023-03-23T05:22:12;5.30;;;1.73;;
57055;SDS011;42945;51.718;5.324;2023-03-23T05:24:41;8.32;;;1.77;;
57055;SDS011;42945;51.718;5.324;2023-03-23T05:27:07;9.25;;;1.58;;
57055;SDS011;42945;51.718;5.324;2023-03-23T05:29:36;8.20;;;1.65;;
57055;SDS011;42945;51.718;5.324;2023-03-23T05:32:02;7.60;;;1.55;;
57055;SDS011;42945;51.718;5.324;2023-03-23T05:34:30;5.63;;;1.45;;
57055;SDS011;42945;51.718;5.324;2023-03-23T05:36:58;4.32;;;1.38;;
57055;SDS011;42945;51.718;5.324;2023-03-23T05:39:24;14.45;;;2.03;;
57055;SDS011;42945;51.718;5.324;2023-03-23T05:41:49;7.07;;;1.50;;
57055;SDS011;42945;51.718;5.324;2023-03-23T05:44:15;8.38;;;1.30;;
57055;SDS011;42945;51.718;5.324;2023-03-23T05:46:41;9.02;;;1.73;;
57055;SDS011;42945;51.718;5.324;2023-03-23T05:49:06;9.05;;;1.60;;
57055;SDS011;42945;51.718;5.324;2023-03-23T05:51:32;10.70;;;1.73;;
57055;SDS011;42945;51.718;5.324;2023-03-23T05:53:57;7.40;;;1.50;;
57055;SDS011;42945;51.718;5.324;2023-03-23T05:56:23;6.07;;;1.50;;
57055;SDS011;42945;51.718;5.324;2023-03-23T05:58:49;6.95;;;1.55;;
57055;SDS011;42945;51.718;5.324;2023-03-23T06:01:14;7.72;;;1.42;;
57055;SDS011;42945;51.718;5.324;2023-03-23T06:03:41;6.82;;;1.40;;
57055;SDS011;42945;51.718;5.324;2023-03-23T06:06:06;8.70;;;1.50;;
57055;SDS011;42945;51.718;5.324;2023-03-23T06:08:35;7.05;;;1.65;;
57055;SDS011;42945;51.718;5.324;2023-03-23T06:11:02;6.18;;;1.10;;
57055;SDS011;42945;51.718;5.324;2023-03-23T06:13:27;8.43;;;1.75;;
57055;SDS011;42945;51.718;5.324;2023-03-23T06:15:56;9.50;;;1.48;;
57055;SDS011;42945;51.718;5.324;2023-03-23T06:18:22;5.05;;;1.60;;
57055;SDS011;42945;51.718;5.324;2023-03-23T06:20:48;7.10;;;1.67;;
57055;SDS011;42945;51.718;5.324;2023-03-23T06:23:14;7.88;;;1.52;;
57055;SDS011;42945;51.718;5.324;2023-03-23T06:25:39;5.35;;;1.67;;
57055;SDS011;42945;51.718;5.324;2023-03-23T06:28:05;9.75;;;1.63;;
57055;SDS011;42945;51.718;5.324;2023-03-23T06:30:30;7.57;;;1.83;;
57055;SDS011;42945;51.718;5.324;2023-03-23T06:32:56;9.70;;;1.48;;
57055;SDS011;42945;51.718;5.324;2023-03-23T06:35:22;11.13;;;1.92;;
57055;SDS011;42945;51.718;5.324;2023-03-23T06:37:47;12.20;;;1.88;;
57055;SDS011;42945;51.718;5.324;2023-03-23T06:40:13;9.68;;;2.05;;
57055;SDS011;42945;51.718;5.324;2023-03-23T06:42:38;13.05;;;1.92;;
57055;SDS011;42945;51.718;5.324;2023-03-23T06:45:04;8.32;;;2.33;;
57055;SDS011;42945;51.718;5.324;2023-03-23T06:47:30;10.40;;;1.85;;
57055;SDS011;42945;51.718;5.324;2023-03-23T06:49:56;10.60;;;2.10;;
57055;SDS011;42945;51.718;5.324;2023-03-23T06:52:22;9.27;;;2.35;;
57055;SDS011;42945;51.718;5.324;2023-03-23T06:54:48;16.08;;;2.92;;
57055;SDS011;42945;51.718;5.324;2023-03-23T06:57:14;11.40;;;2.25;;
57055;SDS011;42945;51.718;5.324;2023-03-23T06:59:40;10.35;;;2.30;;
57055;SDS011;42945;51.718;5.324;2023-03-23T07:02:07;13.05;;;2.72;;
57055;SDS011;42945;51.718;5.324;2023-03-23T07:04:34;11.18;;;2.40;;
57055;SDS011;42945;51.718;5.324;2023-03-23T07:07:00;15.18;;;3.38;;
57055;SDS011;42945;51.718;5.324;2023-03-23T07:09:26;11.25;;;2.35;;
57055;SDS011;42945;51.718;5.324;2023-03-23T07:11:51;9.20;;;2.17;;
57055;SDS011;42945;51.718;5.324;2023-03-23T07:14:17;10.23;;;2.22;;
57055;SDS011;42945;51.718;5.324;2023-03-23T07:16:42;12.65;;;2.25;;
57055;SDS011;42945;51.718;5.324;2023-03-23T07:19:07;10.48;;;2.20;;
57055;SDS011;42945;51.718;5.324;2023-03-23T07:21:33;8.68;;;2.45;;
57055;SDS011;42945;51.718;5.324;2023-03-23T07:23:58;11.63;;;2.63;;
57055;SDS011;42945;51.718;5.324;2023-03-23T07:26:23;12.45;;;2.47;;
57055;SDS011;42945;51.718;5.324;2023-03-23T07:28:49;13.60;;;2.10;;
57055;SDS011;42945;51.718;5.324;2023-03-23T07:31:14;12.00;;;2.35;;
57055;SDS011;42945;51.718;5.324;2023-03-23T07:33:40;13.35;;;2.47;;
57055;SDS011;42945;51.718;5.324;2023-03-23T07:36:06;10.45;;;2.10;;
57055;SDS011;42945;51.718;5.324;2023-03-23T07:38:33;8.57;;;1.98;;
57055;SDS011;42945;51.718;5.324;2023-03-23T07:40:58;9.15;;;2.65;;
57055;SDS011;42945;51.718;5.324;2023-03-23T07:43:23;10.73;;;1.83;;
57055;SDS011;42945;51.718;5.324;2023-03-23T07:45:49;7.35;;;2.40;;
57055;SDS011;42945;51.718;5.324;2023-03-23T07:48:14;10.02;;;2.40;;
57055;SDS011;42945;51.718;5.324;2023-03-23T07:50:40;9.30;;;1.98;;
57055;SDS011;42945;51.718;5.324;2023-03-23T07:53:05;10.00;;;2.22;;
57055;SDS011;42945;51.718;5.324;2023-03-23T07:55:32;7.35;;;1.48;;
57055;SDS011;42945;51.718;5.324;2023-03-23T07:57:57;11.10;;;1.75;;
57055;SDS011;42945;51.718;5.324;2023-03-23T08:00:23;4.78;;;1.27;;
57055;SDS011;42945;51.718;5.324;2023-03-23T08:02:53;7.32;;;1.30;;
57055;SDS011;42945;51.718;5.324;2023-03-23T08:05:24;5.03;;;1.40;;
57055;SDS011;42945;51.718;5.324;2023-03-23T08:07:51;10.15;;;1.55;;
57055;SDS011;42945;51.718;5.324;2023-03-23T08:10:19;5.05;;;1.27;;
57055;SDS011;42945;51.718;5.324;2023-03-23T08:12:46;9.40;;;1.20;;
57055;SDS011;42945;51.718;5.324;2023-03-23T08:15:19;5.28;;;1.10;;
57055;SDS011;42945;51.718;5.324;2023-03-23T08:17:46;6.63;;;1.08;;
57055;SDS011;42945;51.718;5.324;2023-03-23T08:20:12;2.65;;;0.70;;
57055;SDS011;42945;51.718;5.324;2023-03-23T08:22:41;3.85;;;0.98;;
57055;SDS011;42945;51.718;5.324;2023-03-23T08:25:13;5.63;;;0.90;;
57055;SDS011;42945;51.718;5.324;2023-03-23T08:27:42;3.42;;;1.00;;
57055;SDS011;42945;51.718;5.324;2023-03-23T08:30:09;4.07;;;0.88;;
57055;SDS011;42945;51.718;5.324;2023-03-23T08:32:39;2.67;;;0.60;;
57055;SDS011;42945;51.718;5.324;2023-03-23T08:35:07;4.60;;;0.80;;
57055;SDS011;42945;51.718;5.324;2023-03-23T08:37:34;5.38;;;1.08;;
57055;SDS011;42945;51.718;5.324;2023-03-23T08:39:59;3.30;;;0.90;;
57055;SDS011;42945;51.718;5.324;2023-03-23T08:42:25;4.45;;;1.08;;
57055;SDS011;42945;51.718;5.324;2023-03-23T08:44:51;4.82;;;0.88;;
57055;SDS011;42945;51.718;5.324;2023-03-23T08:47:17;5.05;;;0.90;;
57055;SDS011;42945;51.718;5.324;2023-03-23T08:49:42;5.00;;;0.95;;
57055;SDS011;42945;51.718;5.324;2023-03-23T08:52:10;3.47;;;0.70;;
57055;SDS011;42945;51.718;5.324;2023-03-23T08:54:35;5.10;;;0.65;;
57055;SDS011;42945;51.718;5.324;2023-03-23T08:57:01;5.25;;;1.05;;
57055;SDS011;42945;51.718;5.324;2023-03-23T08:59:26;4.25;;;0.80;;
57055;SDS011;42945;51.718;5.324;2023-03-23T09:01:52;3.90;;;1.13;;
57055;SDS011;42945;51.718;5.324;2023-03-23T09:04:17;4.32;;;1.00;;
57055;SDS011;42945;51.718;5.324;2023-03-23T09:06:43;7.22;;;1.10;;
57055;SDS011;42945;51.718;5.324;2023-03-23T09:09:09;5.85;;;1.10;;
57055;SDS011;42945;51.718;5.324;2023-03-23T09:11:35;3.95;;;1.08;;
57055;SDS011;42945;51.718;5.324;2023-03-23T09:14:02;5.15;;;1.08;;
57055;SDS011;42945;51.718;5.324;2023-03-23T09:16:28;5.95;;;1.40;;
57055;SDS011;42945;51.718;5.324;2023-03-23T09:18:56;9.70;;;1.77;;
57055;SDS011;42945;51.718;5.324;2023-03-23T09:21:22;5.80;;;1.17;;
57055;SDS011;42945;51.718;5.324;2023-03-23T09:23:48;5.13;;;1.20;;
57055;SDS011;42945;51.718;5.324;2023-03-23T09:26:14;5.85;;;1.33;;
57055;SDS011;42945;51.718;5.324;2023-03-23T09:28:39;6.05;;;1.20;;
57055;SDS011;42945;51.718;5.324;2023-03-23T09:31:05;9.52;;;1.73;;
57055;SDS011;42945;51.718;5.324;2023-03-23T09:33:30;13.73;;;1.60;;
57055;SDS011;42945;51.718;5.324;2023-03-23T09:35:59;6.82;;;1.70;;
57055;SDS011;42945;51.718;5.324;2023-03-23T09:38:27;8.35;;;1.50;;
57055;SDS011;42945;51.718;5.324;2023-03-23T09:41:01;9.43;;;1.50;;
57055;SDS011;42945;51.718;5.324;2023-03-23T09:49:05;8.85;;;1.48;;
57055;SDS011;42945;51.718;5.324;2023-03-23T09:54:35;11.57;;;3.13;;
57055;SDS011;42945;51.718;5.324;2023-03-23T09:57:03;10.25;;;1.70;;
57055;SDS011;42945;51.718;5.324;2023-03-23T10:02:41;13.57;;;2.00;;
57055;SDS011;42945;51.718;5.324;2023-03-23T10:05:30;8.32;;;1.60;;
57055;SDS011;42945;51.718;5.324;2023-03-23T10:08:01;7.53;;;1.70;;
57055;SDS011;42945;51.718;5.324;2023-03-23T10:13:31;6.60;;;1.92;;
57055;SDS011;42945;51.718;5.324;2023-03-23T10:16:10;8.30;;;1.98;;
57055;SDS011;42945;51.718;5.324;2023-03-23T10:18:45;10.77;;;1.70;;
57055;SDS011;42945;51.718;5.324;2023-03-23T10:21:17;8.80;;;2.35;;
57055;SDS011;42945;51.718;5.324;2023-03-23T10:23:51;10.55;;;1.90;;
57055;SDS011;42945;51.718;5.324;2023-03-23T10:28:48;6.82;;;1.90;;
57055;SDS011;42945;51.718;5.324;2023-03-23T10:31:24;6.43;;;1.63;;
57055;SDS011;42945;51.718;5.324;2023-03-23T10:33:56;9.85;;;2.22;;
57055;SDS011;42945;51.718;5.324;2023-03-23T10:36:30;12.57;;;2.22;;
57055;SDS011;42945;51.718;5.324;2023-03-23T10:41:30;7.68;;;1.92;;
57055;SDS011;42945;51.718;5.324;2023-03-23T10:43:56;9.07;;;1.67;;
57055;SDS011;42945;51.718;5.324;2023-03-23T10:46:26;11.63;;;2.17;;
57055;SDS011;42945;51.718;5.324;2023-03-23T10:48:59;7.93;;;1.80;;
57055;SDS011;42945;51.718;5.324;2023-03-23T10:51:29;7.78;;;1.73;;
57055;SDS011;42945;51.718;5.324;2023-03-23T10:54:00;9.50;;;1.70;;
57055;SDS011;42945;51.718;5.324;2023-03-23T10:56:28;6.40;;;1.75;;
57055;SDS011;42945;51.718;5.324;2023-03-23T10:58:59;11.88;;;2.28;;
57055;SDS011;42945;51.718;5.324;2023-03-23T11:01:36;11.70;;;2.10;;
57055;SDS011;42945;51.718;5.324;2023-03-23T11:04:01;12.05;;;2.10;;
57055;SDS011;42945;51.718;5.324;2023-03-23T11:06:29;8.30;;;2.00;;
57055;SDS011;42945;51.718;5.324;2023-03-23T11:09:00;11.82;;;2.20;;
57055;SDS011;42945;51.718;5.324;2023-03-23T11:11:29;8.73;;;2.08;;
57055;SDS011;42945;51.718;5.324;2023-03-23T11:14:01;6.63;;;1.50;;
57055;SDS011;42945;51.718;5.324;2023-03-23T11:16:41;6.20;;;1.73;;
57055;SDS011;42945;51.718;5.324;2023-03-23T11:19:13;8.43;;;1.77;;
57055;SDS011;42945;51.718;5.324;2023-03-23T11:21:40;7.45;;;1.88;;
57055;SDS011;42945;51.718;5.324;2023-03-23T11:24:11;10.20;;;2.40;;
57055;SDS011;42945;51.718;5.324;2023-03-23T11:26:37;7.22;;;1.90;;
57055;SDS011;42945;51.718;5.324;2023-03-23T11:29:10;7.15;;;2.00;;
57055;SDS011;42945;51.718;5.324;2023-03-23T11:31:43;9.13;;;2.10;;
57055;SDS011;42945;51.718;5.324;2023-03-23T11:34:19;9.82;;;1.92;;
57055;SDS011;42945;51.718;5.324;2023-03-23T11:39:24;7.75;;;2.00;;
57055;SDS011;42945;51.718;5.324;2023-03-23T11:41:51;5.40;;;1.17;;
57055;SDS011;42945;51.718;5.324;2023-03-23T11:44:17;8.13;;;1.40;;
57055;SDS011;42945;51.718;5.324;2023-03-23T11:52:25;6.32;;;1.30;;
57055;SDS011;42945;51.718;5.324;2023-03-23T11:55:07;6.40;;;1.75;;
57055;SDS011;42945;51.718;5.324;2023-03-23T11:57:37;7.35;;;1.60;;
57055;SDS011;42945;51.718;5.324;2023-03-23T12:00:10;5.38;;;1.40;;
57055;SDS011;42945;51.718;5.324;2023-03-23T12:13:59;7.53;;;1.55;;
57055;SDS011;42945;51.718;5.324;2023-03-23T12:16:51;8.02;;;1.52;;
57055;SDS011;42945;51.718;5.324;2023-03-23T12:30:50;6.13;;;1.63;;
57055;SDS011;42945;51.718;5.324;2023-03-23T12:33:34;7.53;;;1.50;;
57055;SDS011;42945;51.718;5.324;2023-03-23T12:39:14;4.10;;;1.13;;
57055;SDS011;42945;51.718;5.324;2023-03-23T12:42:25;6.53;;;1.42;;
57055;SDS011;42945;51.718;5.324;2023-03-23T12:44:50;3.72;;;1.17;;
57055;SDS011;42945;51.718;5.324;2023-03-23T12:47:28;6.43;;;1.40;;
57055;SDS011;42945;51.718;5.324;2023-03-23T12:53:02;6.10;;;1.00;;
57055;SDS011;42945;51.718;5.324;2023-03-23T12:55:49;3.83;;;1.05;;
57055;SDS011;42945;51.718;5.324;2023-03-23T12:58:30;7.82;;;1.00;;
57055;SDS011;42945;51.718;5.324;2023-03-23T13:01:04;6.07;;;1.50;;
57055;SDS011;42945;51.718;5.324;2023-03-23T13:03:43;6.07;;;1.42;;
57055;SDS011;42945;51.718;5.324;2023-03-23T13:06:17;7.07;;;1.40;;
57055;SDS011;42945;51.718;5.324;2023-03-23T13:09:02;5.10;;;1.30;;
57055;SDS011;42945;51.718;5.324;2023-03-23T13:11:45;8.05;;;1.45;;
57055;SDS011;42945;51.718;5.324;2023-03-23T13:14:22;6.53;;;1.45;;
57055;SDS011;42945;51.718;5.324;2023-03-23T13:25:01;7.38;;;1.30;;
57055;SDS011;42945;51.718;5.324;2023-03-23T13:27:33;8.20;;;2.00;;
57055;SDS011;42945;51.718;5.324;2023-03-23T13:29:58;7.15;;;1.23;;
57055;SDS011;42945;51.718;5.324;2023-03-23T13:32:37;8.30;;;1.92;;
57055;SDS011;42945;51.718;5.324;2023-03-23T13:35:05;11.20;;;2.17;;
57055;SDS011;42945;51.718;5.324;2023-03-23T13:37:46;6.82;;;1.42;;
57055;SDS011;42945;51.718;5.324;2023-03-23T13:40:15;10.93;;;1.95;;
57055;SDS011;42945;51.718;5.324;2023-03-23T13:42:53;9.90;;;1.88;;
57055;SDS011;42945;51.718;5.324;2023-03-23T13:45:22;9.35;;;1.70;;
57055;SDS011;42945;51.718;5.324;2023-03-23T13:53:29;11.27;;;1.95;;
57055;SDS011;42945;51.718;5.324;2023-03-23T13:58:44;6.78;;;1.50;;
57055;SDS011;42945;51.718;5.324;2023-03-23T14:01:30;8.63;;;1.85;;
57055;SDS011;42945;51.718;5.324;2023-03-23T14:03:59;7.55;;;1.50;;
57055;SDS011;42945;51.718;5.324;2023-03-23T14:06:25;7.03;;;1.70;;
57055;SDS011;42945;51.718;5.324;2023-03-23T14:09:02;11.77;;;1.52;;
57055;SDS011;42945;51.718;5.324;2023-03-23T14:14:06;6.00;;;1.23;;
57055;SDS011;42945;51.718;5.324;2023-03-23T14:16:39;10.40;;;1.65;;
57055;SDS011;42945;51.718;5.324;2023-03-23T14:19:13;11.05;;;2.30;;
57055;SDS011;42945;51.718;5.324;2023-03-23T14:21:49;8.63;;;1.83;;
57055;SDS011;42945;51.718;5.324;2023-03-23T14:24:28;7.38;;;1.45;;
57055;SDS011;42945;51.718;5.324;2023-03-23T14:29:30;10.98;;;2.20;;
57055;SDS011;42945;51.718;5.324;2023-03-23T14:31:55;7.63;;;1.98;;
57055;SDS011;42945;51.718;5.324;2023-03-23T14:34:23;8.38;;;1.77;;
57055;SDS011;42945;51.718;5.324;2023-03-23T14:36:51;11.02;;;2.58;;
57055;SDS011;42945;51.718;5.324;2023-03-23T14:39:31;8.57;;;2.03;;
57055;SDS011;42945;51.718;5.324;2023-03-23T14:42:03;8.00;;;1.75;;
57055;SDS011;42945;51.718;5.324;2023-03-23T14:44:32;6.72;;;1.92;;
57055;SDS011;42945;51.718;5.324;2023-03-23T14:47:01;13.90;;;2.17;;
57055;SDS011;42945;51.718;5.324;2023-03-23T14:49:31;6.15;;;1.90;;
57055;SDS011;42945;51.718;5.324;2023-03-23T14:52:07;10.50;;;1.90;;
57055;SDS011;42945;51.718;5.324;2023-03-23T14:54:34;9.32;;;2.03;;
57055;SDS011;42945;51.718;5.324;2023-03-23T14:57:03;9.02;;;1.83;;
57055;SDS011;42945;51.718;5.324;2023-03-23T14:59:36;6.80;;;1.90;;
57055;SDS011;42945;51.718;5.324;2023-03-23T15:02:05;9.50;;;1.88;;
57055;SDS011;42945;51.718;5.324;2023-03-23T15:04:31;13.32;;;1.67;;
57055;SDS011;42945;51.718;5.324;2023-03-23T15:07:02;6.68;;;1.20;;
57055;SDS011;42945;51.718;5.324;2023-03-23T15:09:29;8.00;;;1.83;;
57055;SDS011;42945;51.718;5.324;2023-03-23T15:11:56;11.15;;;2.13;;
57055;SDS011;42945;51.718;5.324;2023-03-23T15:14:29;9.82;;;1.50;;
57055;SDS011;42945;51.718;5.324;2023-03-23T15:16:58;8.95;;;1.83;;
57055;SDS011;42945;51.718;5.324;2023-03-23T15:19:25;8.15;;;1.60;;
57055;SDS011;42945;51.718;5.324;2023-03-23T15:21:57;8.32;;;1.70;;
57055;SDS011;42945;51.718;5.324;2023-03-23T15:24:32;11.13;;;1.73;;
57055;SDS011;42945;51.718;5.324;2023-03-23T15:27:10;8.38;;;1.65;;
57055;SDS011;42945;51.718;5.324;2023-03-23T15:29:46;8.98;;;2.17;;
57055;SDS011;42945;51.718;5.324;2023-03-23T15:32:13;6.93;;;1.70;;
57055;SDS011;42945;51.718;5.324;2023-03-23T15:34:38;7.97;;;1.55;;
57055;SDS011;42945;51.718;5.324;2023-03-23T15:37:17;9.18;;;1.50;;
57055;SDS011;42945;51.718;5.324;2023-03-23T15:39:45;6.47;;;1.48;;
57055;SDS011;42945;51.718;5.324;2023-03-23T15:42:21;6.45;;;1.67;;
57055;SDS011;42945;51.718;5.324;2023-03-23T15:47:36;6.93;;;1.80;;
57055;SDS011;42945;51.718;5.324;2023-03-23T15:50:03;6.70;;;1.55;;
57055;SDS011;42945;51.718;5.324;2023-03-23T15:52:43;9.48;;;1.50;;
57055;SDS011;42945;51.718;5.324;2023-03-23T15:57:41;9.63;;;1.47;;
57055;SDS011;42945;51.718;5.324;2023-03-23T16:00:07;9.85;;;1.50;;
57055;SDS011;42945;51.718;5.324;2023-03-23T16:02:33;9.55;;;1.70;;
57055;SDS011;42945;51.718;5.324;2023-03-23T16:05:00;9.13;;;1.60;;
57055;SDS011;42945;51.718;5.324;2023-03-23T16:07:25;6.88;;;1.10;;
57055;SDS011;42945;51.718;5.324;2023-03-23T16:09:51;8.60;;;1.20;;
57055;SDS011;42945;51.718;5.324;2023-03-23T16:12:16;6.57;;;1.23;;
57055;SDS011;42945;51.718;5.324;2023-03-23T16:14:42;8.70;;;1.73;;
57055;SDS011;42945;51.718;5.324;2023-03-23T16:17:09;10.93;;;1.90;;
57055;SDS011;42945;51.718;5.324;2023-03-23T16:19:37;7.95;;;1.30;;
57055;SDS011;42945;51.718;5.324;2023-03-23T16:22:03;10.68;;;1.50;;
57055;SDS011;42945;51.718;5.324;2023-03-23T16:24:28;7.07;;;1.45;;
57055;SDS011;42945;51.718;5.324;2023-03-23T16:26:53;7.03;;;1.60;;
57055;SDS011;42945;51.718;5.324;2023-03-23T16:29:19;10.35;;;1.70;;
57055;SDS011;42945;51.718;5.324;2023-03-23T16:31:44;5.38;;;1.33;;
57055;SDS011;42945;51.718;5.324;2023-03-23T16:34:10;9.07;;;1.95;;